Time;durP1;ratioP1;P1;durP2;ratioP2;P2;SDS_P1;SDS_P2;PMS_P1;PMS_P2;Temp;Humidity;BMP_temperature;BMP_pressure;BME280_temperature;BME280_humidity;BME280_pressure;Samples;Min_cycle;Max_cycle;Signal;HPM_P1;HPM_P2
2022/03/29 00:02:11;;;;;;;;;;;;;;;;;;5019643;28;19964;-85
2022/03/29 00:04:36;;;;;;;;;;;;;;;;;;5019234;28;19917;-85
2022/03/29 00:07:01;;;;;;;;;;;;;;;;;;5020422;28;19968;-85
2022/03/29 00:09:26;;;;;;;;;;;;;;;;;;5035885;28;19922;-85
2022/03/29 00:11:52;;;;;;;;;;;;;;;;;;5035678;28;19910;-84
2022/03/29 00:14:17;;;;;;;;;;;;;;;;;;5020842;28;19921;-85
2022/03/29 00:16:42;;;;;;;;;;;;;;;;;;5035785;28;19910;-85
2022/03/29 00:19:07;;;;;;;;;;;;;;;;;;5034767;28;19913;-86
2022/03/29 00:21:32;;;;;;;;;;;;;;;;;;5034257;28;19913;-85
2022/03/29 00:23:57;;;;;;;;;;;;;;;;;;5035711;28;19936;-84
2022/03/29 00:26:22;;;;;;;;;;;;;;;;;;5035183;28;20234;-84
2022/03/29 00:28:47;;;;;;;;;;;;;;;;;;5019905;28;19921;-85
2022/03/29 00:31:12;;;;;;;;;;;;;;;;;;5035209;28;19894;-85
2022/03/29 00:33:38;;;;;;;;;;;;;;;;;;5019657;28;19945;-85
2022/03/29 00:36:03;;;;;;;;;;;;;;;;;;5034083;28;20383;-85
2022/03/29 00:38:28;;;;;;;;;;;;;;;;;;5034890;28;19926;-85
2022/03/29 00:40:53;;;;;;;;;;;;;;;;;;5018549;28;19917;-84
2022/03/29 00:43:19;;;;;;;;;;;;;;;;;;5019742;28;19910;-85
2022/03/29 00:45:45;;;;;;;;;;;;;;;;;;5019574;28;19914;-85
2022/03/29 00:48:11;;;;;;;;;;;;;;;;;;5021074;28;19955;-85
2022/03/29 00:50:36;;;;;;;;;;;;;;;;;;5021773;28;19953;-85
2022/03/29 00:53:01;;;;;;;;;;;;;;;;;;5020404;28;19945;-85
2022/03/29 00:55:26;;;;;;;;;;;;;;;;;;5023784;28;20551;-85
2022/03/29 00:57:52;;;;;;;;;;;;;;;;;;5022198;28;20355;-85
2022/03/29 01:00:17;;;;;;;;;;;;;;;;;;5021289;28;19920;-84
2022/03/29 01:02:43;;;;;;;;;;;;;;;;;;5021116;28;19909;-86
2022/03/29 01:05:08;;;;;;;;;;;;;;;;;;5022874;28;19951;-85
2022/03/29 01:07:33;;;;;;;;;;;;;;;;;;5021128;28;20263;-86
2022/03/29 01:10:01;;;;;;;;;;;;;;;;;;5020195;28;20251;-85
2022/03/29 01:12:26;;;;;;;;;;;;;;;;;;5022233;28;19955;-85
2022/03/29 01:14:51;;;;;;;;;;;;;;;;;;5019686;28;19996;-85
2022/03/29 01:20:00;;;;;;;;;;;;;;;;;;5024704;28;19916;-84
2022/03/29 01:22:25;;;;;;;;;;;;;;;;;;5023951;28;19909;-84
2022/03/29 01:24:51;;;;;;;;;;;;;;;;;;5023011;28;19910;-84
2022/03/29 01:27:16;;;;;;;;;;;;;;;;;;5022494;28;19909;-85
2022/03/29 01:29:43;;;;;;;;;;;;;;;;;;5019917;28;19932;-85
2022/03/29 01:32:08;;;;;;;;;;;;;;;;;;5022102;28;19910;-85
2022/03/29 01:34:34;;;;;;;;;;;;;;;;;;5022823;28;19909;-84
2022/03/29 01:36:59;;;;;;;;;;;;;;;;;;5020337;28;20000;-84
2022/03/29 01:39:24;;;;;;;;;;;;;;;;;;5021362;28;19922;-83
2022/03/29 01:41:49;;;;;;;;;;;;;;;;;;5022063;28;19910;-84
2022/03/29 01:44:15;;;;;;;;;;;;;;;;;;5022327;28;19910;-84
2022/03/29 01:46:40;;;;;;;;;;;;;;;;;;5020717;28;19910;-84
2022/03/29 01:49:05;;;;;;;;;;;;;;;;;;5021862;28;19910;-84
2022/03/29 01:51:30;;;;;;;;;;;;;;;;;;5021315;28;19910;-85
2022/03/29 01:53:55;;;;;;;;;;;;;;;;;;5022203;28;19910;-85
2022/03/29 01:56:20;;;;;;;;;;;;;;;;;;5022021;28;20377;-85
2022/03/29 01:58:45;;;;;;;;;;;;;;;;;;5020866;28;19918;-84
2022/03/29 02:01:10;;;;;;;;;;;;;;;;;;5019351;28;19909;-83
2022/03/29 02:03:35;;;;;;;;;;;;;;;;;;5020220;28;19909;-84
2022/03/29 02:06:00;;;;;;;;;;;;;;;;;;5020504;28;19909;-84
2022/03/29 02:08:26;;;;;;;;;;;;;;;;;;5021996;28;20255;-83
2022/03/29 02:10:52;;;;;;;;;;;;;;;;;;5020117;28;19948;-84
2022/03/29 02:13:17;;;;;;;;;;;;;;;;;;5020204;28;19921;-83
2022/03/29 02:15:42;;;;;;;;;;;;;;;;;;5020425;28;19911;-85
2022/03/29 02:18:07;;;;;;;;;;;;;;;;;;5021147;28;19921;-84
2022/03/29 02:20:32;;;;;;;;;;;;;;;;;;5020728;28;19909;-83
2022/03/29 02:22:57;;;;;;;;;;;;;;;;;;5020335;28;20283;-85
2022/03/29 02:25:23;;;;;;;;;;;;;;;;;;5021480;28;19910;-84
2022/03/29 02:27:48;;;;;;;;;;;;;;;;;;5020655;28;19920;-83
2022/03/29 02:30:13;;;;;;;;;;;;;;;;;;5021649;28;19916;-84
2022/03/29 02:32:38;;;;;;;;;;;;;;;;;;5019785;28;19910;-84
2022/03/29 02:35:03;;;;;;;;;;;;;;;;;;5020460;28;20405;-85
2022/03/29 02:37:28;;;;;;;;;;;;;;;;;;5019761;28;20372;-85
2022/03/29 02:39:53;;;;;;;;;;;;;;;;;;5030208;28;19921;-85
2022/03/29 02:42:18;;;;;;;;;;;;;;;;;;5036722;28;19910;-84
2022/03/29 02:44:44;;;;;;;;;;;;;;;;;;5036112;28;19932;-84
2022/03/29 02:47:09;;;;;;;;;;;;;;;;;;5036319;28;19916;-84
2022/03/29 02:49:36;;;;;;;;;;;;;;;;;;5035549;28;19920;-85
2022/03/29 02:52:01;;;;;;;;;;;;;;;;;;5036987;28;20033;-85
2022/03/29 02:54:26;;;;;;;;;;;;;;;;;;5021309;28;19952;-86
2022/03/29 02:56:51;;;;;;;;;;;;;;;;;;5035802;28;19936;-85
2022/03/29 02:59:16;;;;;;;;;;;;;;;;;;5021968;28;20263;-85
2022/03/29 03:01:41;;;;;;;;;;;;;;;;;;5037185;28;19916;-85
2022/03/29 03:04:07;;;;;;;;;;;;;;;;;;5021416;28;19948;-86
2022/03/29 03:06:32;;;;;;;;;;;;;;;;;;5036688;28;19932;-85
2022/03/29 03:08:57;;;;;;;;;;;;;;;;;;5036417;28;19960;-85
2022/03/29 03:11:23;;;;;;;;;;;;;;;;;;5035689;28;19967;-86
2022/03/29 03:13:48;;;;;;;;;;;;;;;;;;5035992;28;19914;-85
2022/03/29 03:16:13;;;;;;;;;;;;;;;;;;5036029;28;19917;-85
2022/03/29 03:18:40;;;;;;;;;;;;;;;;;;5036687;28;19917;-84
2022/03/29 03:21:05;;;;;;;;;;;;;;;;;;5035612;28;20450;-84
2022/03/29 03:23:30;;;;;;;;;;;;;;;;;;5036750;28;20402;-85
2022/03/29 03:25:56;;;;;;;;;;;;;;;;;;5036065;28;19910;-85
2022/03/29 03:28:21;;;;;;;;;;;;;;;;;;5036538;28;19916;-85
2022/03/29 03:30:46;;;;;;;;;;;;;;;;;;5020656;28;20008;-85
2022/03/29 03:33:11;;;;;;;;;;;;;;;;;;5035494;28;19910;-85
2022/03/29 03:35:36;;;;;;;;;;;;;;;;;;5034971;28;19909;-84
2022/03/29 03:38:01;;;;;;;;;;;;;;;;;;5034131;28;19996;-86
2022/03/29 03:40:26;;;;;;;;;;;;;;;;;;5035305;28;19922;-85
2022/03/29 03:42:51;;;;;;;;;;;;;;;;;;5035329;28;19909;-84
2022/03/29 03:45:17;;;;;;;;;;;;;;;;;;5034665;28;19909;-85
2022/03/29 03:47:42;;;;;;;;;;;;;;;;;;5018371;28;19920;-86
2022/03/29 03:50:07;;;;;;;;;;;;;;;;;;5020080;28;19916;-84
2022/03/29 03:52:32;;;;;;;;;;;;;;;;;;5035178;28;19916;-85
2022/03/29 03:54:57;;;;;;;;;;;;;;;;;;5035602;28;19914;-84
2022/03/29 03:57:22;;;;;;;;;;;;;;;;;;5035871;28;20437;-85
2022/03/29 03:59:51;;;;;;;;;;;;;;;;;;5034776;28;21613;-84
2022/03/29 04:02:16;;;;;;;;;;;;;;;;;;5035551;28;19944;-85
2022/03/29 04:04:41;;;;;;;;;;;;;;;;;;5019588;28;19909;-85
2022/03/29 04:07:06;;;;;;;;;;;;;;;;;;5033926;28;19913;-84
2022/03/29 04:09:35;;;;;;;;;;;;;;;;;;5034300;28;19913;-84
2022/03/29 04:12:00;;;;;;;;;;;;;;;;;;5035099;28;19916;-84
2022/03/29 04:14:25;;;;;;;;;;;;;;;;;;5035407;28;19910;-84
2022/03/29 04:16:50;;;;;;;;;;;;;;;;;;5020266;28;19909;-84
2022/03/29 04:19:15;;;;;;;;;;;;;;;;;;5035261;28;20360;-84
2022/03/29 04:21:40;;;;;;;;;;;;;;;;;;5035478;28;20262;-85
2022/03/29 04:24:05;;;;;;;;;;;;;;;;;;5038943;28;19916;-82
2022/03/29 04:26:31;;;;;;;;;;;;;;;;;;5039585;28;19933;-83
2022/03/29 04:28:56;;;;;;;;;;;;;;;;;;5039423;28;19916;-82
2022/03/29 04:31:22;;;;;;;;;;;;;;;;;;5040131;28;19909;-83
2022/03/29 04:33:47;;;;;;;;;;;;;;;;;;5040257;28;19920;-83
2022/03/29 04:36:12;;;;;;;;;;;;;;;;;;5040035;28;19910;-84
2022/03/29 04:38:37;;;;;;;;;;;;;;;;;;5025514;28;19921;-85
2022/03/29 04:41:04;;;;;;;;;;;;;;;;;;5023738;28;19909;-83
2022/03/29 04:43:29;;;;;;;;;;;;;;;;;;5023838;28;19964;-83
2022/03/29 04:45:54;;;;;;;;;;;;;;;;;;5024485;28;19965;-82
2022/03/29 04:48:20;;;;;;;;;;;;;;;;;;5025047;28;19910;-84
2022/03/29 04:50:45;;;;;;;;;;;;;;;;;;5023984;28;19932;-84
2022/03/29 04:53:10;;;;;;;;;;;;;;;;;;5024699;28;19905;-84
2022/03/29 04:55:35;;;;;;;;;;;;;;;;;;5025052;28;19906;-82
2022/03/29 04:58:00;;;;;;;;;;;;;;;;;;5022204;28;19925;-83
2022/03/29 05:00:25;;;;;;;;;;;;;;;;;;5023954;28;20379;-85
2022/03/29 05:02:51;;;;;;;;;;;;;;;;;;5024503;28;19909;-84
2022/03/29 05:05:16;;;;;;;;;;;;;;;;;;5019624;28;19920;-85
2022/03/29 05:07:41;;;;;;;;;;;;;;;;;;5019346;28;19926;-85
2022/03/29 05:10:08;;;;;;;;;;;;;;;;;;5018765;28;20421;-85
2022/03/29 05:12:33;;;;;;;;;;;;;;;;;;5018672;28;20000;-85
2022/03/29 05:14:58;;;;;;;;;;;;;;;;;;5019054;28;19945;-85
2022/03/29 05:17:23;;;;;;;;;;;;;;;;;;5018881;28;19917;-84
2022/03/29 05:19:48;;;;;;;;;;;;;;;;;;5020059;28;20314;-85
2022/03/29 05:22:13;;;;;;;;;;;;;;;;;;5019092;28;19960;-87
2022/03/29 05:24:39;;;;;;;;;;;;;;;;;;5019251;28;19910;-89
2022/03/29 05:27:05;;;;;;;;;;;;;;;;;;5020208;28;19905;-86
2022/03/29 05:29:30;;;;;;;;;;;;;;;;;;5018788;28;19983;-81
2022/03/29 05:31:57;;;;;;;;;;;;;;;;;;5025001;28;19914;-87
2022/03/29 05:34:22;;;;;;;;;;;;;;;;;;5021672;28;20016;-86
2022/03/29 05:36:47;;;;;;;;;;;;;;;;;;5018725;28;19961;-84
2022/03/29 05:39:13;;;;;;;;;;;;;;;;;;5026600;28;20383;-87
2022/03/29 05:41:38;;;;;;;;;;;;;;;;;;5038881;28;19909;-87
2022/03/29 05:44:03;;;;;;;;;;;;;;;;;;5036097;28;19909;-87
2022/03/29 05:49:12;;;;;;;;;;;;;;;;;;5019322;28;20398;-84
2022/03/29 05:51:37;;;;;;;;;;;;;;;;;;5033676;28;20371;-83
2022/03/29 05:54:04;;;;;;;;;;;;;;;;;;5019151;28;20295;-86
2022/03/29 05:56:29;;;;;;;;;;;;;;;;;;5039265;28;19910;-87
2022/03/29 05:58:54;;;;;;;;;;;;;;;;;;5036272;28;19972;-85
2022/03/29 06:01:20;;;;;;;;;;;;;;;;;;5020235;28;19972;-84
2022/03/29 06:03:45;;;;;;;;;;;;;;;;;;5019241;28;19909;-85
2022/03/29 06:06:10;;;;;;;;;;;;;;;;;;5019086;28;19910;-86
2022/03/29 06:08:37;;;;;;;;;;;;;;;;;;5035154;28;19922;-89
2022/03/29 06:11:04;;;;;;;;;;;;;;;;;;5035111;28;19960;-84
2022/03/29 06:13:29;;;;;;;;;;;;;;;;;;5032854;28;20056;-85
2022/03/29 06:15:54;;;;;;;;;;;;;;;;;;5017816;28;19971;-82
2022/03/29 06:18:19;;;;;;;;;;;;;;;;;;5032499;28;20430;-82
2022/03/29 06:20:44;;;;;;;;;;;;;;;;;;5032817;28;19913;-83
2022/03/29 06:23:09;;;;;;;;;;;;;;;;;;5019252;28;19914;-82
2022/03/29 06:25:36;;;;;;;;;;;;;;;;;;5024076;28;20396;-82
2022/03/29 06:28:01;;;;;;;;;;;;;;;;;;5022892;28;19963;-81
2022/03/29 06:30:26;;;;;;;;;;;;;;;;;;5027179;28;20363;-81
2022/03/29 06:32:51;;;;;;;;;;;;;;;;;;5024334;28;19913;-82
2022/03/29 06:35:16;;;;;;;;;;;;;;;;;;5026112;28;19910;-82
2022/03/29 06:37:41;;;;;;;;;;;;;;;;;;5024682;28;19937;-82
2022/03/29 06:40:06;;;;;;;;;;;;;;;;;;5025914;28;19921;-82
2022/03/29 06:42:31;;;;;;;;;;;;;;;;;;5016457;28;19916;-81
2022/03/29 06:44:56;;;;;;;;;;;;;;;;;;5018724;28;19913;-81
2022/03/29 06:47:22;;;;;;;;;;;;;;;;;;5018267;28;19909;-83
2022/03/29 06:49:47;;;;;;;;;;;;;;;;;;5018893;28;20255;-83
2022/03/29 06:52:12;;;;;;;;;;;;;;;;;;5036596;28;19921;-82
2022/03/29 06:54:37;;;;;;;;;;;;;;;;;;5036444;28;19956;-80
2022/03/29 06:57:02;;;;;;;;;;;;;;;;;;5036705;28;19915;-81
2022/03/29 06:59:27;;;;;;;;;;;;;;;;;;5020056;28;20028;-82
2022/03/29 07:01:53;;;;;;;;;;;;;;;;;;5015785;28;20335;-81
2022/03/29 07:04:18;;;;;;;;;;;;;;;;;;5014875;28;19931;-82
2022/03/29 07:06:43;;;;;;;;;;;;;;;;;;5015108;28;19917;-82
2022/03/29 07:11:52;;;;;;;;;;;;;;;;;;5016370;28;19921;-80
2022/03/29 07:14:17;;;;;;;;;;;;;;;;;;5014848;28;19909;-81
2022/03/29 07:16:44;;;;;;;;;;;;;;;;;;5006397;28;19914;-80
2022/03/29 07:19:10;;;;;;;;;;;;;;;;;;5000776;28;19928;-80
2022/03/29 07:21:38;;;;;;;;;;;;;;;;;;4993437;28;19910;-81
2022/03/29 07:24:03;;;;;;;;;;;;;;;;;;4994021;28;19909;-80
2022/03/29 07:26:30;;;;;;;;;;;;;;;;;;4994581;28;19910;-80
2022/03/29 07:28:55;;;;;;;;;;;;;;;;;;5014374;28;19910;-81
2022/03/29 07:31:20;;;;;;;;;;;;;;;;;;5015249;28;19916;-80
2022/03/29 07:33:45;;;;;;;;;;;;;;;;;;4984814;28;20405;-81
2022/03/29 07:36:10;;;;;;;;;;;;;;;;;;5030496;28;20366;-81
2022/03/29 07:38:35;;;;;;;;;;;;;;;;;;5027337;28;20000;-80
2022/03/29 07:41:01;;;;;;;;;;;;;;;;;;5027347;28;19918;-79
2022/03/29 07:43:26;;;;;;;;;;;;;;;;;;5027275;28;19910;-80
2022/03/29 07:45:51;;;;;;;;;;;;;;;;;;5027077;28;19965;-83
2022/03/29 07:48:16;;;;;;;;;;;;;;;;;;4995644;28;19910;-79
2022/03/29 07:50:42;;;;;;;;;;;;;;;;;;5027702;28;19910;-79
2022/03/29 07:53:07;;;;;;;;;;;;;;;;;;5027666;28;19961;-80
2022/03/29 07:55:32;;;;;;;;;;;;;;;;;;5028120;28;19917;-78
2022/03/29 07:57:57;;;;;;;;;;;;;;;;;;4999134;28;19971;-78
2022/03/29 08:00:31;;;;;;;;;;;;;;;;;;5033309;28;19941;-78
2022/03/29 08:02:56;;;;;;;;;;;;;;;;;;5034008;28;20367;-78
2022/03/29 08:05:22;;;;;;;;;;;;;;;;;;5002186;28;20379;-78
2022/03/29 08:07:47;;;;;;;;;;;;;;;;;;5032509;28;19928;-79
2022/03/29 08:10:13;;;;;;;;;;;;;;;;;;5033717;28;19997;-79
2022/03/29 08:12:38;;;;;;;;;;;;;;;;;;5033875;28;19925;-79
2022/03/29 08:15:05;;;;;;;;;;;;;;;;;;5034153;28;19910;-78
2022/03/29 08:17:31;;;;;;;;;;;;;;;;;;5002148;28;20381;-79
2022/03/29 08:19:56;;;;;;;;;;;;;;;;;;5002024;28;20424;-79
2022/03/29 08:22:21;;;;;;;;;;;;;;;;;;5002196;28;19956;-79
2022/03/29 08:24:46;;;;;;;;;;;;;;;;;;5001351;28;19914;-79
2022/03/29 08:27:11;;;;;;;;;;;;;;;;;;5033496;28;19909;-79
2022/03/29 08:29:37;;;;;;;;;;;;;;;;;;5002073;28;20383;-79
2022/03/29 08:32:03;;;;;;;;;;;;;;;;;;5002348;28;19909;-78
2022/03/29 08:34:28;;;;;;;;;;;;;;;;;;5033048;28;19914;-78
2022/03/29 08:36:53;;;;;;;;;;;;;;;;;;5001668;28;20312;-78
2022/03/29 08:39:18;;;;;;;;;;;;;;;;;;5010832;28;19929;-79
2022/03/29 08:41:43;;;;;;;;;;;;;;;;;;5022016;28;19951;-79
2022/03/29 08:44:08;;;;;;;;;;;;;;;;;;5037414;28;19913;-79
2022/03/29 08:46:33;;;;;;;;;;;;;;;;;;5021755;28;19931;-79
2022/03/29 08:48:58;;;;;;;;;;;;;;;;;;5021477;28;19914;-78
2022/03/29 08:51:23;;;;;;;;;;;;;;;;;;5021237;28;19955;-79
2022/03/29 08:53:49;;;;;;;;;;;;;;;;;;5022772;28;19909;-78
2022/03/29 08:56:14;;;;;;;;;;;;;;;;;;5035487;28;20003;-78
2022/03/29 08:58:39;;;;;;;;;;;;;;;;;;5021095;28;20278;-78
2022/03/29 09:01:05;;;;;;;;;;;;;;;;;;5036470;28;20405;-79
2022/03/29 09:03:30;;;;;;;;;;;;;;;;;;5021773;28;19960;-78
2022/03/29 09:05:55;;;;;;;;;;;;;;;;;;5036495;28;20394;-78
2022/03/29 09:08:20;;;;;;;;;;;;;;;;;;5020908;28;20020;-78
2022/03/29 09:10:45;;;;;;;;;;;;;;;;;;5032785;28;19909;-78
2022/03/29 09:13:10;;;;;;;;;;;;;;;;;;5033545;28;19971;-78
2022/03/29 09:15:35;;;;;;;;;;;;;;;;;;5018138;28;19941;-77
2022/03/29 09:18:00;;;;;;;;;;;;;;;;;;5018054;28;19936;-79
2022/03/29 09:20:26;;;;;;;;;;;;;;;;;;5018184;28;19961;-77
2022/03/29 09:22:51;;;;;;;;;;;;;;;;;;5033561;28;20451;-79
2022/03/29 09:25:16;;;;;;;;;;;;;;;;;;5032825;28;19979;-77
2022/03/29 09:27:41;;;;;;;;;;;;;;;;;;5017527;28;19914;-77
2022/03/29 09:30:06;;;;;;;;;;;;;;;;;;5018288;28;19909;-77
2022/03/29 09:32:31;;;;;;;;;;;;;;;;;;5018552;28;19909;-79
2022/03/29 09:34:56;;;;;;;;;;;;;;;;;;5018163;28;19920;-85
2022/03/29 09:37:22;;;;;;;;;;;;;;;;;;5017867;28;19983;-82
2022/03/29 09:39:48;;;;;;;;;;;;;;;;;;5033067;28;20490;-79
2022/03/29 09:42:13;;;;;;;;;;;;;;;;;;5032296;28;20339;-80
2022/03/29 09:44:40;;;;;;;;;;;;;;;;;;5016473;28;19945;-81
2022/03/29 09:47:07;;;;;;;;;;;;;;;;;;5033043;28;20004;-80
2022/03/29 09:49:32;;;;;;;;;;;;;;;;;;5033777;28;19925;-81
2022/03/29 09:51:57;;;;;;;;;;;;;;;;;;5018487;28;19914;-78
2022/03/29 09:54:22;;;;;;;;;;;;;;;;;;5037613;28;20000;-78
2022/03/29 09:56:47;;;;;;;;;;;;;;;;;;5035531;28;20106;-78
2022/03/29 09:59:14;;;;;;;;;;;;;;;;;;5019065;28;19924;-78
2022/03/29 10:01:39;;;;;;;;;;;;;;;;;;5032288;28;20021;-78
2022/03/29 10:04:04;;;;;;;;;;;;;;;;;;5017091;28;19925;-78
2022/03/29 10:06:30;;;;;;;;;;;;;;;;;;5032468;28;19917;-77
2022/03/29 10:11:38;;;;;;;;;;;;;;;;;;5016962;28;20020;-77
2022/03/29 10:14:03;;;;;;;;;;;;;;;;;;5032346;28;19909;-78
2022/03/29 10:16:29;;;;;;;;;;;;;;;;;;5016229;28;20397;-77
2022/03/29 10:18:54;;;;;;;;;;;;;;;;;;5016073;28;20357;-78
2022/03/29 10:21:19;;;;;;;;;;;;;;;;;;5016186;28;19910;-78
2022/03/29 10:23:44;;;;;;;;;;;;;;;;;;5032081;28;19929;-79
2022/03/29 10:26:09;;;;;;;;;;;;;;;;;;5032760;28;19916;-78
2022/03/29 10:28:35;;;;;;;;;;;;;;;;;;5016621;28;19958;-79
2022/03/29 10:31:00;;;;;;;;;;;;;;;;;;5016206;28;19949;-78
2022/03/29 10:33:25;;;;;;;;;;;;;;;;;;5016469;28;19909;-78
2022/03/29 10:35:51;;;;;;;;;;;;;;;;;;5031846;28;19916;-84
2022/03/29 10:38:17;;;;;;;;;;;;;;;;;;5015316;28;19933;-77
2022/03/29 10:40:42;;;;;;;;;;;;;;;;;;5016148;28;19917;-79
2022/03/29 10:43:07;;;;;;;;;;;;;;;;;;5032908;28;19910;-82
2022/03/29 10:45:34;;;;;;;;;;;;;;;;;;5033327;28;19910;-80
2022/03/29 10:47:59;;;;;;;;;;;;;;;;;;5032387;28;19910;-81
2022/03/29 10:50:24;;;;;;;;;;;;;;;;;;5030957;28;20019;-85
2022/03/29 10:52:49;;;;;;;;;;;;;;;;;;5016982;28;19914;-79
2022/03/29 10:55:14;;;;;;;;;;;;;;;;;;5031533;28;19963;-79
2022/03/29 10:57:39;;;;;;;;;;;;;;;;;;5016259;28;19917;-81
2022/03/29 11:00:05;;;;;;;;;;;;;;;;;;5016736;28;19916;-81
2022/03/29 11:02:30;;;;;;;;;;;;;;;;;;5031570;28;19972;-78
2022/03/29 11:04:55;;;;;;;;;;;;;;;;;;5031649;28;20378;-77
2022/03/29 11:07:20;;;;;;;;;;;;;;;;;;5015795;28;19917;-78
2022/03/29 11:09:46;;;;;;;;;;;;;;;;;;5016758;28;19909;-78
2022/03/29 11:12:11;;;;;;;;;;;;;;;;;;5031610;28;19909;-78
2022/03/29 11:14:39;;;;;;;;;;;;;;;;;;5016196;28;20264;-78
2022/03/29 11:17:04;;;;;;;;;;;;;;;;;;5031488;28;19956;-77
2022/03/29 11:19:29;;;;;;;;;;;;;;;;;;5031929;28;19953;-77
2022/03/29 11:21:54;;;;;;;;;;;;;;;;;;5035119;28;20015;-78
2022/03/29 11:24:19;;;;;;;;;;;;;;;;;;5035959;28;20414;-79
2022/03/29 11:26:44;;;;;;;;;;;;;;;;;;5036359;28;19909;-79
2022/03/29 11:29:10;;;;;;;;;;;;;;;;;;5035160;28;19935;-78
2022/03/29 11:31:35;;;;;;;;;;;;;;;;;;5035162;28;19921;-78
2022/03/29 11:34:00;;;;;;;;;;;;;;;;;;5035560;28;19932;-77
2022/03/29 11:36:25;;;;;;;;;;;;;;;;;;5034552;28;19916;-77
2022/03/29 11:38:50;;;;;;;;;;;;;;;;;;5034761;28;19925;-77
2022/03/29 11:41:15;;;;;;;;;;;;;;;;;;5034567;28;20290;-78
2022/03/29 11:43:40;;;;;;;;;;;;;;;;;;5034311;28;20472;-78
2022/03/29 11:46:05;;;;;;;;;;;;;;;;;;5032576;28;19909;-77
2022/03/29 11:48:31;;;;;;;;;;;;;;;;;;5033223;28;19913;-77
2022/03/29 11:50:56;;;;;;;;;;;;;;;;;;5032938;28;19916;-77
2022/03/29 11:53:21;;;;;;;;;;;;;;;;;;5033912;28;19905;-77
2022/03/29 11:55:46;;;;;;;;;;;;;;;;;;5032776;28;19954;-78
2022/03/29 11:58:11;;;;;;;;;;;;;;;;;;5033649;28;19917;-78
2022/03/29 12:00:36;;;;;;;;;;;;;;;;;;5033915;28;19909;-80
2022/03/29 12:03:01;;;;;;;;;;;;;;;;;;5033957;28;20389;-78
2022/03/29 12:05:27;;;;;;;;;;;;;;;;;;5033575;28;19894;-79
2022/03/29 12:07:52;;;;;;;;;;;;;;;;;;5035102;28;19917;-78
2022/03/29 12:10:17;;;;;;;;;;;;;;;;;;5034846;28;20355;-79
2022/03/29 12:12:42;;;;;;;;;;;;;;;;;;5035152;28;19910;-78
2022/03/29 12:15:07;;;;;;;;;;;;;;;;;;5033689;28;19963;-78
2022/03/29 12:17:34;;;;;;;;;;;;;;;;;;5034238;28;20331;-79
2022/03/29 12:19:59;;;;;;;;;;;;;;;;;;5033842;28;19915;-78
2022/03/29 12:22:26;;;;;;;;;;;;;;;;;;5034611;28;19909;-78
2022/03/29 12:24:55;;;;;;;;;;;;;;;;;;5033561;28;19909;-77
2022/03/29 12:27:20;;;;;;;;;;;;;;;;;;5034082;28;20396;-77
2022/03/29 12:29:46;;;;;;;;;;;;;;;;;;5033032;28;19913;-78
2022/03/29 12:32:11;;;;;;;;;;;;;;;;;;5034734;28;19910;-78
2022/03/29 12:34:36;;;;;;;;;;;;;;;;;;5034091;28;19917;-78
2022/03/29 12:37:02;;;;;;;;;;;;;;;;;;5034633;28;20466;-78
2022/03/29 12:39:27;;;;;;;;;;;;;;;;;;5034154;28;19925;-78
2022/03/29 12:41:52;;;;;;;;;;;;;;;;;;5036313;28;19941;-79
2022/03/29 12:44:18;;;;;;;;;;;;;;;;;;5037229;28;19920;-78
2022/03/29 12:46:43;;;;;;;;;;;;;;;;;;5037841;28;19913;-78
2022/03/29 12:49:08;;;;;;;;;;;;;;;;;;5038397;28;19910;-78
2022/03/29 12:51:33;;;;;;;;;;;;;;;;;;5038433;28;20007;-77
2022/03/29 12:53:58;;;;;;;;;;;;;;;;;;5040470;28;19920;-80
2022/03/29 12:56:23;;;;;;;;;;;;;;;;;;5039325;28;19916;-79
2022/03/29 12:58:49;;;;;;;;;;;;;;;;;;5039745;28;20019;-79
2022/03/29 13:01:15;;;;;;;;;;;;;;;;;;5036163;28;19909;-79
2022/03/29 13:03:40;;;;;;;;;;;;;;;;;;5037283;28;20525;-80
2022/03/29 13:06:05;;;;;;;;;;;;;;;;;;5038290;28;19909;-79
2022/03/29 13:08:31;;;;;;;;;;;;;;;;;;5037635;28;19955;-79
2022/03/29 13:10:56;;;;;;;;;;;;;;;;;;5036857;28;19948;-79
2022/03/29 13:13:22;;;;;;;;;;;;;;;;;;5037485;28;19909;-80
2022/03/29 13:15:48;;;;;;;;;;;;;;;;;;5036925;28;19909;-79
2022/03/29 13:18:13;;;;;;;;;;;;;;;;;;5037427;28;19917;-80
2022/03/29 13:20:38;;;;;;;;;;;;;;;;;;5036950;28;19914;-80
2022/03/29 13:23:03;;;;;;;;;;;;;;;;;;5037324;28;20353;-79
2022/03/29 13:25:28;;;;;;;;;;;;;;;;;;5037542;28;19920;-79
2022/03/29 13:27:53;;;;;;;;;;;;;;;;;;5037396;28;19909;-78
2022/03/29 13:30:18;;;;;;;;;;;;;;;;;;5037265;28;19913;-78
2022/03/29 13:32:43;;;;;;;;;;;;;;;;;;5036287;28;19909;-80
2022/03/29 13:35:08;;;;;;;;;;;;;;;;;;5036884;28;19920;-81
2022/03/29 13:37:33;;;;;;;;;;;;;;;;;;5035883;28;19921;-80
2022/03/29 13:39:58;;;;;;;;;;;;;;;;;;5036759;28;19999;-81
2022/03/29 13:42:24;;;;;;;;;;;;;;;;;;5035928;28;19893;-81
2022/03/29 13:44:49;;;;;;;;;;;;;;;;;;5035903;28;19913;-80
2022/03/29 13:47:14;;;;;;;;;;;;;;;;;;5036168;28;19929;-79
2022/03/29 13:49:39;;;;;;;;;;;;;;;;;;5035585;28;20279;-80
2022/03/29 13:52:05;;;;;;;;;;;;;;;;;;5037000;28;19955;-80
2022/03/29 13:54:30;;;;;;;;;;;;;;;;;;5035099;28;19910;-79
2022/03/29 13:56:55;;;;;;;;;;;;;;;;;;5034419;28;19955;-80
2022/03/29 13:59:21;;;;;;;;;;;;;;;;;;5034675;28;20374;-80
2022/03/29 14:01:46;;;;;;;;;;;;;;;;;;5036284;28;19913;-81
2022/03/29 14:04:12;;;;;;;;;;;;;;;;;;5036094;28;19909;-79
2022/03/29 14:06:37;;;;;;;;;;;;;;;;;;5035987;28;20428;-79
2022/03/29 14:09:03;;;;;;;;;;;;;;;;;;5036532;28;19924;-80
2022/03/29 14:11:29;;;;;;;;;;;;;;;;;;5035264;28;19920;-81
2022/03/29 14:13:54;;;;;;;;;;;;;;;;;;5035550;28;19909;-80
2022/03/29 14:16:20;;;;;;;;;;;;;;;;;;5035497;28;19936;-80
2022/03/29 14:18:45;;;;;;;;;;;;;;;;;;5036308;28;19949;-80
2022/03/29 14:21:10;;;;;;;;;;;;;;;;;;5036090;28;19913;-79
2022/03/29 14:23:36;;;;;;;;;;;;;;;;;;5036429;28;19910;-80
2022/03/29 14:26:01;;;;;;;;;;;;;;;;;;5036135;28;19909;-80
2022/03/29 14:28:26;;;;;;;;;;;;;;;;;;5035941;28;19909;-81
2022/03/29 14:30:51;;;;;;;;;;;;;;;;;;5039546;28;20402;-80
2022/03/29 14:33:16;;;;;;;;;;;;;;;;;;5040011;28;20040;-77
2022/03/29 14:35:41;;;;;;;;;;;;;;;;;;5044415;28;19909;-79
2022/03/29 14:38:06;;;;;;;;;;;;;;;;;;5044101;28;19970;-82
2022/03/29 14:40:31;;;;;;;;;;;;;;;;;;5041194;28;19954;-80
2022/03/29 14:42:57;;;;;;;;;;;;;;;;;;5041066;28;19916;-79
2022/03/29 14:45:22;;;;;;;;;;;;;;;;;;5041781;28;19916;-81
2022/03/29 14:47:47;;;;;;;;;;;;;;;;;;5042141;28;19917;-84
2022/03/29 14:50:12;;;;;;;;;;;;;;;;;;5040458;28;19963;-82
2022/03/29 14:52:38;;;;;;;;;;;;;;;;;;5036730;28;19909;-80
2022/03/29 14:55:03;;;;;;;;;;;;;;;;;;5036985;28;19913;-82
2022/03/29 14:57:29;;;;;;;;;;;;;;;;;;5042522;28;19924;-80
2022/03/29 14:59:55;;;;;;;;;;;;;;;;;;5040693;28;19913;-82
2022/03/29 15:02:21;;;;;;;;;;;;;;;;;;5046709;28;19991;-83
2022/03/29 15:04:46;;;;;;;;;;;;;;;;;;5039572;28;19902;-82
2022/03/29 15:07:11;;;;;;;;;;;;;;;;;;5040563;28;19923;-82
2022/03/29 15:09:38;;;;;;;;;;;;;;;;;;5046317;28;19979;-80
2022/03/29 15:12:03;;;;;;;;;;;;;;;;;;5037437;28;19909;-81
2022/03/29 15:14:28;;;;;;;;;;;;;;;;;;5039800;28;19924;-76
2022/03/29 15:16:53;;;;;;;;;;;;;;;;;;5045543;28;19916;-78
2022/03/29 15:19:20;;;;;;;;;;;;;;;;;;5039664;28;19926;-78
2022/03/29 15:21:45;;;;;;;;;;;;;;;;;;5048628;28;20313;-78
2022/03/29 15:24:10;;;;;;;;;;;;;;;;;;5044438;28;19909;-77
2022/03/29 15:26:35;;;;;;;;;;;;;;;;;;5039516;28;19909;-78
2022/03/29 15:29:00;;;;;;;;;;;;;;;;;;5039863;28;19909;-79
2022/03/29 15:31:26;;;;;;;;;;;;;;;;;;5043046;28;20325;-78
2022/03/29 15:33:51;;;;;;;;;;;;;;;;;;5045732;28;20023;-79
2022/03/29 15:36:16;;;;;;;;;;;;;;;;;;5043154;28;20256;-78
2022/03/29 15:38:42;;;;;;;;;;;;;;;;;;5042780;28;19976;-79
2022/03/29 15:41:08;;;;;;;;;;;;;;;;;;5042893;28;20000;-78
2022/03/29 15:43:33;;;;;;;;;;;;;;;;;;5042805;28;19972;-78
2022/03/29 15:45:58;;;;;;;;;;;;;;;;;;5044370;28;19920;-78
2022/03/29 15:48:25;;;;;;;;;;;;;;;;;;5041727;28;19913;-78
2022/03/29 15:50:50;;;;;;;;;;;;;;;;;;5042376;28;19948;-81
2022/03/29 15:53:16;;;;;;;;;;;;;;;;;;5043975;28;19936;-81
2022/03/29 15:55:42;;;;;;;;;;;;;;;;;;5042762;28;20000;-81
2022/03/29 15:58:07;;;;;;;;;;;;;;;;;;5042559;28;19927;-82
2022/03/29 16:00:33;;;;;;;;;;;;;;;;;;5039277;28;19996;-78
2022/03/29 16:02:59;;;;;;;;;;;;;;;;;;5044310;28;19913;-78
2022/03/29 16:05:24;;;;;;;;;;;;;;;;;;5042536;28;19920;-78
2022/03/29 16:07:49;;;;;;;;;;;;;;;;;;5041690;28;19924;-79
2022/03/29 16:10:14;;;;;;;;;;;;;;;;;;5045360;28;19909;-78
2022/03/29 16:12:39;;;;;;;;;;;;;;;;;;5033988;28;20389;-78
2022/03/29 16:15:04;;;;;;;;;;;;;;;;;;5015371;28;19910;-78
2022/03/29 16:17:29;;;;;;;;;;;;;;;;;;5014779;28;19909;-81
2022/03/29 16:19:55;;;;;;;;;;;;;;;;;;5020203;28;19916;-79
2022/03/29 16:22:20;;;;;;;;;;;;;;;;;;5018704;28;19913;-80
2022/03/29 16:24:45;;;;;;;;;;;;;;;;;;5018231;28;19909;-81
2022/03/29 16:27:10;;;;;;;;;;;;;;;;;;5019744;28;19909;-79
2022/03/29 16:29:38;;;;;;;;;;;;;;;;;;5015508;28;19909;-80
2022/03/29 16:32:03;;;;;;;;;;;;;;;;;;5018111;28;19917;-80
2022/03/29 16:34:28;;;;;;;;;;;;;;;;;;5017536;28;19913;-81
2022/03/29 16:36:53;;;;;;;;;;;;;;;;;;5017550;28;19932;-80
2022/03/29 16:39:18;;;;;;;;;;;;;;;;;;5017631;28;20276;-79
2022/03/29 16:41:43;;;;;;;;;;;;;;;;;;5018123;28;20322;-82
2022/03/29 16:44:08;;;;;;;;;;;;;;;;;;5020732;28;19968;-81